MSC Fabiola — A8VL5 — position and weather

sailwx.info

Track history (hours):
 
Tides and Currents Weather Stations Pressure Air Temp Water Temp Dewpoint Dewpoint Depression Visibility Wind Speed Wind Dir Waves Ship Positions

MSC Fabiola

Last reported at 2015-Jul-02 15:32 UTC. Time now 2015-Jul-02 16:30 UTC.
Position N 44°06' E 009°51'.

Length 366 m; draft 10.9 m.

Type: Ship. MMSI: 636092019.

Date/timePositionNaut miles runAvg speedWind from/ knotsBaromVisibWave heightAir tempDewpointWater temp
2015-Jul-02 15:32N 44°06' E 009°51'0 0.0
2015-Jul-02 14:29N 44°06' E 009°51'0 0.0
2015-Jul-02 13:32N 44°06' E 009°51'0 0.0
2015-Jul-02 12:32N 44°06' E 009°51'0 0.0
2015-Jul-02 11:32N 44°06' E 009°51'0 0.0
2015-Jul-02 10:32N 44°06' E 009°51'0 0.0
2015-Jul-02 09:32N 44°06' E 009°51'0 0.0
2015-Jul-02 08:32N 44°06' E 009°51'0 0.0
2015-Jul-02 07:32N 44°06' E 009°51'4 3.7
2015-Jul-02 06:33N 44°03' E 009°52'6 6.1
2015-Jul-02 05:33N 43°57' E 009°56'0 0.4
2015-Jul-02 04:34N 43°58' E 009°56'2 1.9
2015-Jul-02 03:34N 43°56' E 009°55'10 9.9
2015-Jul-02 02:34N 43°47' E 009°50'1010.3
2015-Jul-02 01:33N 43°37' E 009°45'1010.2
2015-Jul-02 00:33N 43°27' E 009°43'1010.4
2015-Jul-01 23:33N 43°17' E 009°40'1110.6
2015-Jul-01 22:34N 43°06' E 009°38'1010.5
2015-Jul-01 21:33N 42°56' E 009°40'1110.6
2015-Jul-01 20:33N 42°46' E 009°43'1111.1
2015-Jul-01 19:33N 42°35' E 009°46'1311.7
2015-Jul-01 18:28N 42°22' E 009°49'1111.8
2015-Jul-01 17:33N 42°12' E 009°52'1211.9
2015-Jul-01 16:33N 41°60' E 009°55'1211.7
2015-Jul-01 15:33N 41°52' E 010°07'4812.1
2015-Jul-01 11:33N 41°22' E 010°57'1212.0
2015-Jul-01 10:32N 41°14' E 011°10'1717.4
2015-Jul-01 09:33N 41°03' E 011°27'2020.3
2015-Jul-01 08:33N 40°50' E 011°48'2020.3
2015-Jul-01 07:33N 40°37' E 012°09'2020.2
2015-Jul-01 06:33N 40°24' E 012°29'2020.1
2015-Jul-01 05:33N 40°11' E 012°49'2120.2
2015-Jul-01 04:30N 39°58' E 013°11'1920.2
2015-Jul-01 03:33N 39°46' E 013°30'2020.2
2015-Jul-01 02:32N 39°33' E 013°50'2020.4
2015-Jul-01 01:33N 39°20' E 014°10'2520.3
2015-Jul-01 00:19N 39°04' E 014°35'1519.9
2015-Jun-30 23:33N 38°54' E 014°50'2019.7
2015-Jun-30 22:33N 38°43' E 015°12'2020.4
2015-Jun-30 21:34N 38°34' E 015°35'1716.6
2015-Jun-30 20:33N 38°27' E 015°54'1 0.6
2015-Jun-30 19:25N 38°27' E 015°54'0 0.0
2015-Jun-30 18:31N 38°27' E 015°54'0 0.0
2015-Jun-30 17:31N 38°27' E 015°54'0 0.0
2015-Jun-30 16:28N 38°27' E 015°54'0 0.0
2015-Jun-30 15:31N 38°27' E 015°54'0 0.0
2015-Jun-30 14:28N 38°27' E 015°54'0 0.0
2015-Jun-30 13:31N 38°27' E 015°54'0 0.0
2015-Jun-30 12:31N 38°27' E 015°54'0 0.0
2015-Jun-30 11:28N 38°27' E 015°54'0 0.0
2015-Jun-30 10:31N 38°27' E 015°54'0 0.0
2015-Jun-30 09:28N 38°27' E 015°54'0 0.0
2015-Jun-30 08:10N 38°27' E 015°54'0 0.0
2015-Jun-30 07:31N 38°27' E 015°54'0 0.0
2015-Jun-30 06:28N 38°27' E 015°54'0 0.0
2015-Jun-30 04:19N 38°27' E 015°54'0 0.0
2015-Jun-30 03:25N 38°27' E 015°54'0 0.0
2015-Jun-30 01:22N 38°27' E 015°54'0 0.0
2015-Jun-30 00:16N 38°27' E 015°54'0 0.0
2015-Jun-29 23:28N 38°27' E 015°54'0 0.0
2015-Jun-29 20:31N 38°27' E 015°54'0 0.0
2015-Jun-29 19:31N 38°27' E 015°54'0 0.0
2015-Jun-29 18:31N 38°27' E 015°54'0 0.2
2015-Jun-29 17:33N 38°27' E 015°54'3 2.6
2015-Jun-29 16:29N 38°28' E 015°51'1 1.6
2015-Jun-29 15:33N 38°27' E 015°49'2 2.4
2015-Jun-29 14:33N 38°25' E 015°48'1010.2
2015-Jun-29 13:33N 38°16' E 015°42'1312.5
2015-Jun-29 12:33N 38°04' E 015°36'1010.1
2015-Jun-29 11:33N 37°54' E 015°37'1110.7
2015-Jun-29 10:33N 37°47' E 015°47'73616.6
2015-Jun-27 14:15N 34°41' E 030°29'1519.6
2015-Jun-27 13:28N 34°38' E 030°48'2519.3
2015-Jun-27 12:10N 34°33' E 031°18'1319.4
2015-Jun-27 11:30N 34°31' E 031°33'1819.5
2015-Jun-27 10:33N 34°28' E 031°55'2019.6
2015-Jun-27 09:33N 34°24' E 032°19'2119.5
2015-Jun-27 08:29N 34°21' E 032°44'1819.7
2015-Jun-27 07:33N 34°18' E 033°05'1919.1
2015-Jun-27 06:33N 34°14' E 033°28'2119.5
2015-Jun-27 05:30N 34°11' E 033°53'1819.3
2015-Jun-27 04:33N 34°08' E 034°15'  
Track history (hours):
 
Tides and Currents Weather Stations Pressure Air Temp Water Temp Dewpoint Dewpoint Depression Visibility Wind Speed Wind Dir Waves Ship Positions

MSC Fabiola

Last reported at 2015-Jul-02 15:32 UTC. Time now 2015-Jul-02 16:30 UTC.
Position N 44°06' E 009°51'.

Length 366 m; draft 10.9 m.

Type: Ship. MMSI: 636092019.

Date/timePositionNaut miles runAvg speedWind from/ knotsBaromVisibWave heightAir tempDewpointWater temp
2015-Jul-02 15:32N 44°06' E 009°51'0 0.0
2015-Jul-02 14:29N 44°06' E 009°51'0 0.0
2015-Jul-02 13:32N 44°06' E 009°51'0 0.0
2015-Jul-02 12:32N 44°06' E 009°51'0 0.0
2015-Jul-02 11:32N 44°06' E 009°51'0 0.0
2015-Jul-02 10:32N 44°06' E 009°51'0 0.0
2015-Jul-02 09:32N 44°06' E 009°51'0 0.0
2015-Jul-02 08:32N 44°06' E 009°51'0 0.0
2015-Jul-02 07:32N 44°06' E 009°51'4 3.7
2015-Jul-02 06:33N 44°03' E 009°52'6 6.1
2015-Jul-02 05:33N 43°57' E 009°56'0 0.4
2015-Jul-02 04:34N 43°58' E 009°56'2 1.9
2015-Jul-02 03:34N 43°56' E 009°55'10 9.9
2015-Jul-02 02:34N 43°47' E 009°50'1010.3
2015-Jul-02 01:33N 43°37' E 009°45'1010.2
2015-Jul-02 00:33N 43°27' E 009°43'1010.4
2015-Jul-01 23:33N 43°17' E 009°40'1110.6
2015-Jul-01 22:34N 43°06' E 009°38'1010.5
2015-Jul-01 21:33N 42°56' E 009°40'1110.6
2015-Jul-01 20:33N 42°46' E 009°43'1111.1
2015-Jul-01 19:33N 42°35' E 009°46'1311.7
2015-Jul-01 18:28N 42°22' E 009°49'1111.8
2015-Jul-01 17:33N 42°12' E 009°52'1211.9
2015-Jul-01 16:33N 41°60' E 009°55'1211.7
2015-Jul-01 15:33N 41°52' E 010°07'4812.1
2015-Jul-01 11:33N 41°22' E 010°57'1212.0
2015-Jul-01 10:32N 41°14' E 011°10'1717.4
2015-Jul-01 09:33N 41°03' E 011°27'2020.3
2015-Jul-01 08:33N 40°50' E 011°48'2020.3
2015-Jul-01 07:33N 40°37' E 012°09'2020.2
2015-Jul-01 06:33N 40°24' E 012°29'2020.1
2015-Jul-01 05:33N 40°11' E 012°49'2120.2
2015-Jul-01 04:30N 39°58' E 013°11'1920.2
2015-Jul-01 03:33N 39°46' E 013°30'2020.2
2015-Jul-01 02:32N 39°33' E 013°50'2020.4
2015-Jul-01 01:33N 39°20' E 014°10'2520.3
2015-Jul-01 00:19N 39°04' E 014°35'1519.9
2015-Jun-30 23:33N 38°54' E 014°50'2019.7
2015-Jun-30 22:33N 38°43' E 015°12'2020.4
2015-Jun-30 21:34N 38°34' E 015°35'1716.6
2015-Jun-30 20:33N 38°27' E 015°54'1 0.6
2015-Jun-30 19:25N 38°27' E 015°54'0 0.0
2015-Jun-30 18:31N 38°27' E 015°54'0 0.0
2015-Jun-30 17:31N 38°27' E 015°54'0 0.0
2015-Jun-30 16:28N 38°27' E 015°54'0 0.0
2015-Jun-30 15:31N 38°27' E 015°54'0 0.0
2015-Jun-30 14:28N 38°27' E 015°54'0 0.0
2015-Jun-30 13:31N 38°27' E 015°54'0 0.0
2015-Jun-30 12:31N 38°27' E 015°54'0 0.0
2015-Jun-30 11:28N 38°27' E 015°54'0 0.0
2015-Jun-30 10:31N 38°27' E 015°54'0 0.0
2015-Jun-30 09:28N 38°27' E 015°54'0 0.0
2015-Jun-30 08:10N 38°27' E 015°54'0 0.0
2015-Jun-30 07:31N 38°27' E 015°54'0 0.0
2015-Jun-30 06:28N 38°27' E 015°54'0 0.0
2015-Jun-30 04:19N 38°27' E 015°54'0 0.0
2015-Jun-30 03:25N 38°27' E 015°54'0 0.0
2015-Jun-30 01:22N 38°27' E 015°54'0 0.0
2015-Jun-30 00:16N 38°27' E 015°54'0 0.0
2015-Jun-29 23:28N 38°27' E 015°54'0 0.0
2015-Jun-29 20:31N 38°27' E 015°54'0 0.0
2015-Jun-29 19:31N 38°27' E 015°54'0 0.0
2015-Jun-29 18:31N 38°27' E 015°54'0 0.2
2015-Jun-29 17:33N 38°27' E 015°54'3 2.6
2015-Jun-29 16:29N 38°28' E 015°51'1 1.6
2015-Jun-29 15:33N 38°27' E 015°49'2 2.4
2015-Jun-29 14:33N 38°25' E 015°48'1010.2
2015-Jun-29 13:33N 38°16' E 015°42'1312.5
2015-Jun-29 12:33N 38°04' E 015°36'1010.1
2015-Jun-29 11:33N 37°54' E 015°37'1110.7
2015-Jun-29 10:33N 37°47' E 015°47'73616.6
2015-Jun-27 14:15N 34°41' E 030°29'1519.6
2015-Jun-27 13:28N 34°38' E 030°48'2519.3
2015-Jun-27 12:10N 34°33' E 031°18'1319.4
2015-Jun-27 11:30N 34°31' E 031°33'1819.5
2015-Jun-27 10:33N 34°28' E 031°55'2019.6
2015-Jun-27 09:33N 34°24' E 032°19'2119.5
2015-Jun-27 08:29N 34°21' E 032°44'1819.7
2015-Jun-27 07:33N 34°18' E 033°05'1919.1
2015-Jun-27 06:33N 34°14' E 033°28'2119.5
2015-Jun-27 05:30N 34°11' E 033°53'1819.3
2015-Jun-27 04:33N 34°08' E 034°15'  

Dump ship's entire track history